Time;durP1;ratioP1;P1;durP2;ratioP2;P2;SDS_P1;SDS_P2;PMS_P1;PMS_P2;Temp;Humidity;BMP_temperature;BMP_pressure;BME280_temperature;BME280_humidity;BME280_pressure;Samples;Min_cycle;Max_cycle;Signal;HPM_P1;HPM_P2
2022/09/03 00:00:07;;;;;;;2.40;2.20;;;23.50;42.70;;;;;;5008483;28;20461;-45
2022/09/03 00:02:44;;;;;;;2.00;1.90;;;23.60;42.30;;;;;;5004066;28;20814;-48
2022/09/03 00:05:28;;;;;;;2.90;1.90;;;23.50;42.60;;;;;;4998018;28;20522;-48
2022/09/03 00:08:19;;;;;;;2.17;1.60;;;23.70;42.40;;;;;;5001185;28;20544;-50
2022/09/03 00:11:10;;;;;;;1.57;1.50;;;23.70;42.20;;;;;;4997732;28;20465;-47
2022/09/03 00:13:41;;;;;;;3.00;2.30;;;23.60;41.90;;;;;;4999542;28;20448;-46
2022/09/03 00:16:11;;;;;;;2.47;2.27;;;23.50;42.20;;;;;;5004068;28;20440;-48
2022/09/03 00:18:51;;;;;;;2.13;1.93;;;23.30;42.50;;;;;;5000823;28;20449;-49
2022/09/03 00:21:47;;;;;;;5.30;2.13;;;23.20;42.70;;;;;;5001088;28;20455;-48
2022/09/03 00:24:17;;;;;;;1.80;1.70;;;23.00;42.80;;;;;;5012307;28;20544;-45
2022/09/03 00:26:53;;;;;;;2.00;1.80;;;22.60;43.70;;;;;;5011135;28;20437;-49
2022/09/03 00:29:26;;;;;;;3.03;2.40;;;22.70;44.20;;;;;;5011401;28;20892;-49
2022/09/03 00:32:00;;;;;;;1.67;1.57;;;22.80;43.70;;;;;;5011883;28;20499;-45
2022/09/03 00:34:34;;;;;;;2.07;1.87;;;22.90;43.10;;;;;;5009160;28;20441;-48
2022/09/03 00:37:00;;;;;;;1.73;1.60;;;22.80;43.30;;;;;;4999639;28;20484;-46
2022/09/03 00:39:27;;;;;;;2.00;1.73;;;22.50;44.10;;;;;;5001467;28;20809;-46
2022/09/03 00:42:16;;;;;;;2.20;2.10;;;22.40;44.20;;;;;;5006696;28;20604;-45
2022/09/03 00:45:03;;;;;;;3.17;1.97;;;22.40;44.10;;;;;;5003227;28;20446;-45
2022/09/03 00:47:51;;;;;;;3.13;1.87;;;22.50;44.30;;;;;;5004484;28;20448;-48
2022/09/03 00:50:34;;;;;;;2.53;1.80;;;22.20;44.50;;;;;;5004382;28;20445;-50
2022/09/03 00:53:42;;;;;;;2.23;1.57;;;22.00;45.90;;;;;;5004305;28;20509;-46
2022/09/03 00:56:43;;;;;;;2.07;1.90;;;22.00;45.60;;;;;;4999708;28;20523;-48
2022/09/03 00:59:23;;;;;;;1.83;1.73;;;22.10;46.40;;;;;;5003048;28;20463;-49
2022/09/03 01:02:18;;;;;;;9.03;3.23;;;22.20;45.90;;;;;;4997377;28;20449;-47
2022/09/03 01:05:02;;;;;;;2.70;2.47;;;22.40;45.80;;;;;;5001662;28;20451;-46
2022/09/03 01:07:53;;;;;;;1.70;1.60;;;22.40;46.10;;;;;;4997556;28;20484;-48
2022/09/03 01:10:27;;;;;;;2.40;2.30;;;22.30;46.90;;;;;;5001555;28;20469;-46
2022/09/03 01:13:02;;;;;;;2.90;2.20;;;22.40;45.70;;;;;;4994385;28;20445;-48
2022/09/03 01:15:28;;;;;;;3.23;1.97;;;22.20;45.60;;;;;;5005814;28;20484;-48
2022/09/03 01:17:58;;;;;;;1.70;1.60;;;22.00;46.00;;;;;;5009266;28;20489;-46
2022/09/03 01:20:47;;;;;;;2.20;2.10;;;22.00;46.10;;;;;;4998638;28;20316;-47
2022/09/03 01:23:39;;;;;;;2.07;1.83;;;22.10;46.20;;;;;;4994642;28;20964;-47
2022/09/03 01:26:23;;;;;;;2.90;1.47;;;21.80;46.10;;;;;;4998486;28;20570;-47
2022/09/03 01:28:58;;;;;;;3.20;1.90;;;22.00;46.50;;;;;;5004731;28;20440;-46
2022/09/03 01:31:36;;;;;;;1.63;1.53;;;22.10;46.30;;;;;;4994646;28;20484;-47
2022/09/03 01:34:32;;;;;;;2.50;1.80;;;22.20;47.50;;;;;;5001828;28;21255;-46
2022/09/03 01:37:25;;;;;;;1.70;1.60;;;22.20;45.20;;;;;;5002506;28;20979;-48
2022/09/03 01:39:51;;;;;;;2.40;1.70;;;22.20;46.10;;;;;;4998008;28;20587;-46
2022/09/03 01:42:35;;;;;;;2.97;1.70;;;22.10;45.90;;;;;;5004444;28;21043;-46
2022/09/03 01:45:20;;;;;;;3.37;1.60;;;22.00;47.30;;;;;;5004052;28;20205;-45
2022/09/03 01:48:01;;;;;;;2.60;1.67;;;22.20;46.60;;;;;;5009424;28;20473;-46
2022/09/03 01:50:58;;;;;;;1.57;1.47;;;22.00;45.50;;;;;;5009851;28;20452;-48
2022/09/03 01:53:45;;;;;;;1.70;1.60;;;22.00;46.30;;;;;;5005583;28;20449;-49
2022/09/03 01:56:59;;;;;;;1.60;1.50;;;22.10;47.20;;;;;;5008962;28;20444;-45
2022/09/03 01:59:45;;;;;;;2.60;1.70;;;22.40;45.90;;;;;;4956700;28;22292;-46
2022/09/03 02:02:23;;;;;;;1.80;1.70;;;22.60;44.90;;;;;;5004880;28;20940;-48
2022/09/03 02:05:22;;;;;;;1.50;1.40;;;22.50;44.90;;;;;;5007691;28;20444;-46
2022/09/03 02:07:59;;;;;;;2.00;1.70;;;22.20;46.40;;;;;;4994034;28;20444;-46
2022/09/03 02:10:58;;;;;;;1.67;1.57;;;22.50;46.40;;;;;;5006939;28;20436;-47
2022/09/03 02:13:48;;;;;;;2.30;1.93;;;22.90;47.20;;;;;;5009396;28;20449;-47
2022/09/03 02:16:27;;;;;;;2.93;1.70;;;23.10;45.60;;;;;;5007605;28;20437;-48
2022/09/03 02:19:00;;;;;;;4.80;1.60;;;23.40;45.40;;;;;;5010185;28;20436;-46
2022/09/03 02:21:32;;;;;;;5.57;2.10;;;23.50;44.60;;;;;;5022674;28;20521;-45
2022/09/03 02:23:59;;;;;;;1.50;1.40;;;23.30;43.90;;;;;;5007476;28;20969;-46
2022/09/03 02:26:24;;;;;;;2.97;2.07;;;23.40;44.40;;;;;;5008304;28;20494;-48
2022/09/03 02:28:52;;;;;;;4.33;1.57;;;23.50;44.80;;;;;;5009127;28;20441;-45
2022/09/03 02:31:18;;;;;;;1.50;1.40;;;23.40;44.70;;;;;;5008451;28;20650;-47
2022/09/03 02:33:46;;;;;;;1.60;1.50;;;23.30;44.00;;;;;;5008790;28;20441;-45
2022/09/03 02:36:14;;;;;;;1.50;1.40;;;23.20;44.10;;;;;;5008486;28;20468;-45
2022/09/03 02:38:44;;;;;;;2.17;1.40;;;23.10;44.10;;;;;;5009759;28;20445;-48
2022/09/03 02:41:13;;;;;;;2.27;2.07;;;23.00;45.10;;;;;;5007601;28;20444;-45
2022/09/03 02:44:00;;;;;;;1.67;1.57;;;23.10;45.30;;;;;;5023331;28;20504;-45
2022/09/03 02:46:35;;;;;;;2.30;2.20;;;23.20;45.70;;;;;;5022445;28;20455;-46
2022/09/03 02:49:01;;;;;;;2.17;1.90;;;23.40;45.10;;;;;;5009514;28;20447;-45
2022/09/03 02:51:31;;;;;;;3.90;1.63;;;23.40;44.50;;;;;;5008811;28;20441;-46
2022/09/03 02:53:57;;;;;;;1.73;1.63;;;23.50;44.50;;;;;;5005520;28;20194;-45
2022/09/03 02:56:26;;;;;;;2.17;1.70;;;23.50;44.70;;;;;;5008820;28;20476;-46
2022/09/03 02:58:53;;;;;;;1.30;1.20;;;23.50;44.80;;;;;;5009346;28;20208;-47
2022/09/03 03:01:19;;;;;;;9.27;2.00;;;23.70;44.70;;;;;;5007023;28;20445;-47
2022/09/03 03:03:44;;;;;;;3.57;1.50;;;23.70;44.80;;;;;;5009394;28;20861;-46
2022/09/03 03:06:12;;;;;;;3.57;1.50;;;23.60;44.40;;;;;;5001211;28;20487;-45
2022/09/03 03:08:37;;;;;;;1.67;1.30;;;23.50;44.20;;;;;;4997159;28;20194;-49
2022/09/03 03:11:03;;;;;;;1.90;1.80;;;23.50;45.20;;;;;;4995644;28;20514;-46
2022/09/03 03:13:30;;;;;;;1.80;1.70;;;23.50;45.00;;;;;;4999028;28;20650;-47
2022/09/03 03:16:05;;;;;;;2.50;1.90;;;23.30;45.40;;;;;;4994404;28;20252;-46
2022/09/03 03:18:31;;;;;;;1.53;1.43;;;23.40;44.90;;;;;;4995196;28;20997;-45
2022/09/03 03:20:56;;;;;;;1.63;1.43;;;23.50;45.20;;;;;;4994937;28;20445;-46
2022/09/03 03:23:22;;;;;;;1.83;1.67;;;23.50;44.80;;;;;;5000072;28;20447;-46
2022/09/03 03:25:48;;;;;;;1.70;1.60;;;23.60;45.90;;;;;;4998360;28;20201;-46
2022/09/03 03:28:14;;;;;;;2.80;1.90;;;23.60;44.60;;;;;;4999901;28;20198;-45
2022/09/03 03:30:41;;;;;;;1.90;1.70;;;23.50;45.00;;;;;;4998015;28;20219;-46
2022/09/03 03:33:07;;;;;;;2.27;1.63;;;23.50;45.00;;;;;;4996383;28;20197;-45
2022/09/03 03:35:34;;;;;;;1.70;1.60;;;23.30;44.90;;;;;;4999414;28;20453;-45
2022/09/03 03:38:00;;;;;;;1.80;1.70;;;23.30;44.70;;;;;;4996584;28;20485;-45
2022/09/03 03:40:26;;;;;;;1.70;1.60;;;23.20;44.70;;;;;;4998837;28;20449;-48
2022/09/03 03:42:52;;;;;;;1.90;1.80;;;23.20;44.70;;;;;;4995982;28;20228;-45
2022/09/03 03:45:18;;;;;;;1.43;1.33;;;23.00;44.80;;;;;;5007749;28;20597;-46
2022/09/03 03:47:44;;;;;;;1.50;1.40;;;22.90;45.90;;;;;;5004007;28;20503;-45
2022/09/03 03:50:10;;;;;;;4.93;1.80;;;23.00;45.60;;;;;;5009433;28;20452;-45
2022/09/03 03:52:35;;;;;;;5.63;1.90;;;23.20;46.30;;;;;;5012903;28;21197;-45
2022/09/03 03:55:01;;;;;;;2.37;1.47;;;23.10;44.60;;;;;;5010779;28;20206;-49
2022/09/03 03:57:29;;;;;;;1.57;1.43;;;22.90;46.50;;;;;;5003866;28;20233;-45
2022/09/03 03:59:55;;;;;;;1.97;1.80;;;22.90;46.50;;;;;;4997218;28;20191;-48
2022/09/03 04:02:21;;;;;;;2.03;1.90;;;23.00;46.10;;;;;;5003497;28;20935;-46
2022/09/03 04:04:46;;;;;;;2.00;1.67;;;22.80;46.20;;;;;;4995471;28;20197;-45
2022/09/03 04:07:12;;;;;;;4.03;1.80;;;22.90;45.70;;;;;;4998355;28;20798;-46
2022/09/03 04:09:38;;;;;;;1.67;1.50;;;22.90;46.20;;;;;;5007749;28;20225;-46
2022/09/03 04:12:07;;;;;;;1.50;1.40;;;23.00;46.50;;;;;;5005897;28;20198;-49
2022/09/03 04:14:34;;;;;;;1.57;1.47;;;23.20;46.90;;;;;;5006546;28;20193;-46
2022/09/03 04:17:01;;;;;;;1.67;1.57;;;23.40;45.40;;;;;;5000173;28;20541;-46
2022/09/03 04:19:28;;;;;;;1.80;1.70;;;23.50;45.70;;;;;;4998088;28;20477;-46
2022/09/03 04:21:54;;;;;;;3.23;2.10;;;23.40;44.90;;;;;;5000747;28;20461;-46
2022/09/03 04:24:20;;;;;;;2.20;1.83;;;23.20;45.50;;;;;;4998921;28;20453;-48
2022/09/03 04:26:46;;;;;;;2.07;1.97;;;22.80;45.70;;;;;;5007626;28;20289;-45
2022/09/03 04:29:12;;;;;;;2.63;1.90;;;22.70;46.00;;;;;;5007110;28;20572;-45
2022/09/03 04:31:38;;;;;;;2.00;1.80;;;22.90;46.70;;;;;;5001379;28;20204;-48
2022/09/03 04:34:09;;;;;;;1.50;1.40;;;23.10;47.20;;;;;;5007416;28;20244;-48
2022/09/03 04:36:36;;;;;;;4.40;2.10;;;23.20;46.30;;;;;;4996134;28;20505;-46
2022/09/03 04:39:01;;;;;;;7.03;2.03;;;23.50;46.60;;;;;;4999154;28;20559;-46
2022/09/03 04:41:29;;;;;;;7.80;1.93;;;23.60;45.90;;;;;;5001341;28;20480;-45
2022/09/03 04:43:57;;;;;;;6.50;2.10;;;23.60;45.50;;;;;;5000039;28;20213;-46
2022/09/03 04:46:28;;;;;;;4.10;1.50;;;23.80;45.50;;;;;;4999374;28;20979;-48
2022/09/03 04:48:54;;;;;;;1.90;1.80;;;23.70;44.70;;;;;;5010496;28;20516;-48
2022/09/03 04:51:26;;;;;;;1.97;1.83;;;23.50;44.80;;;;;;4997326;28;20441;-45
2022/09/03 04:53:56;;;;;;;2.10;1.50;;;23.30;45.80;;;;;;4997092;28;20198;-48
2022/09/03 04:56:27;;;;;;;1.70;1.60;;;23.00;45.80;;;;;;4998957;28;20446;-45
2022/09/03 04:59:01;;;;;;;4.93;2.10;;;22.80;47.00;;;;;;5005490;28;22977;-45
2022/09/03 05:01:29;;;;;;;2.00;1.70;;;22.90;46.50;;;;;;5006729;28;20792;-45
2022/09/03 05:03:56;;;;;;;4.80;1.60;;;22.70;47.10;;;;;;4998729;28;20452;-45
2022/09/03 05:06:24;;;;;;;2.00;1.90;;;22.80;47.10;;;;;;5000054;28;20448;-45
2022/09/03 05:08:51;;;;;;;2.10;2.00;;;22.20;47.20;;;;;;5001452;28;20449;-46
2022/09/03 05:11:17;;;;;;;2.13;1.80;;;22.20;47.60;;;;;;4995193;28;20439;-45
2022/09/03 05:13:47;;;;;;;3.00;2.07;;;22.10;47.70;;;;;;5008073;28;20570;-46
2022/09/03 05:16:13;;;;;;;3.40;1.87;;;22.00;49.40;;;;;;5001112;28;20453;-45
2022/09/03 05:18:40;;;;;;;2.13;1.93;;;22.20;48.70;;;;;;4996121;28;20811;-46
2022/09/03 05:21:09;;;;;;;2.10;1.80;;;22.30;47.60;;;;;;5004423;28;20224;-45
2022/09/03 05:23:39;;;;;;;2.87;1.93;;;22.40;47.10;;;;;;4996775;28;20438;-44
2022/09/03 05:26:08;;;;;;;4.00;1.70;;;22.30;47.20;;;;;;4997150;28;20433;-45
2022/09/03 05:28:35;;;;;;;3.10;2.27;;;22.30;48.10;;;;;;4993923;28;20441;-46
2022/09/03 05:31:06;;;;;;;3.23;2.40;;;22.10;48.20;;;;;;4995626;28;20449;-46
2022/09/03 05:33:37;;;;;;;2.53;2.10;;;22.20;47.80;;;;;;5009370;28;20548;-46
2022/09/03 05:36:05;;;;;;;7.33;2.40;;;22.20;48.10;;;;;;5002599;28;20532;-46
2022/09/03 05:38:31;;;;;;;2.53;1.90;;;22.10;47.80;;;;;;5007089;28;20530;-45
2022/09/03 05:40:58;;;;;;;4.20;2.10;;;22.00;47.80;;;;;;5001747;28;20500;-45
2022/09/03 05:43:24;;;;;;;2.27;1.90;;;22.10;48.10;;;;;;5003777;28;21210;-48
2022/09/03 05:45:50;;;;;;;3.40;2.23;;;22.30;48.20;;;;;;5006529;28;20448;-47
2022/09/03 05:48:15;;;;;;;2.07;1.87;;;22.20;48.00;;;;;;5009760;28;20600;-45
2022/09/03 05:50:41;;;;;;;2.10;1.93;;;22.30;48.00;;;;;;5006364;28;20204;-45
2022/09/03 05:53:06;;;;;;;2.50;1.90;;;22.20;48.10;;;;;;5014662;28;20646;-48
2022/09/03 05:55:32;;;;;;;3.20;2.10;;;22.30;48.20;;;;;;5009152;28;21256;-48
2022/09/03 05:57:58;;;;;;;4.30;1.70;;;22.40;47.80;;;;;;5001880;28;20584;-45
2022/09/03 06:00:24;;;;;;;3.23;1.93;;;22.50;47.90;;;;;;5005153;28;20193;-46
2022/09/03 06:02:52;;;;;;;2.87;1.93;;;22.50;47.80;;;;;;5007663;28;20198;-47
2022/09/03 06:05:18;;;;;;;5.67;2.73;;;22.50;47.80;;;;;;5008911;28;20622;-45
2022/09/03 06:07:47;;;;;;;3.37;2.10;;;22.50;47.80;;;;;;5007934;28;20457;-48
2022/09/03 06:10:15;;;;;;;2.40;1.87;;;22.50;48.30;;;;;;5008545;28;20448;-46
2022/09/03 06:12:44;;;;;;;4.33;2.30;;;22.40;48.40;;;;;;5010345;28;20555;-46
2022/09/03 06:15:10;;;;;;;3.40;1.77;;;22.40;48.40;;;;;;5007131;28;20456;-45
2022/09/03 06:17:37;;;;;;;1.90;1.80;;;22.40;48.50;;;;;;5008964;28;20488;-48
2022/09/03 06:20:03;;;;;;;1.97;1.87;;;22.30;48.60;;;;;;5007184;28;20280;-46
2022/09/03 06:22:30;;;;;;;1.80;1.70;;;22.50;48.50;;;;;;5007000;28;20900;-45
2022/09/03 06:24:55;;;;;;;3.43;2.40;;;22.40;48.70;;;;;;5000598;28;20449;-47
2022/09/03 06:27:21;;;;;;;2.87;2.30;;;22.60;48.70;;;;;;5008006;28;20479;-45
2022/09/03 06:29:47;;;;;;;2.40;2.20;;;22.80;48.10;;;;;;4999021;28;20202;-46
2022/09/03 06:32:14;;;;;;;6.07;2.53;;;22.80;48.00;;;;;;5008707;28;20201;-47
2022/09/03 06:34:39;;;;;;;2.03;1.93;;;22.70;48.20;;;;;;5006275;28;20235;-46
2022/09/03 06:37:05;;;;;;;2.03;1.90;;;22.90;48.40;;;;;;5009062;28;20577;-45
2022/09/03 06:39:30;;;;;;;3.43;1.70;;;22.90;48.30;;;;;;5010224;28;20186;-45
2022/09/03 06:41:56;;;;;;;2.17;1.97;;;23.10;47.90;;;;;;5009372;28;20229;-46
2022/09/03 06:44:22;;;;;;;2.30;2.10;;;23.00;47.60;;;;;;5009831;28;20241;-46
2022/09/03 06:46:47;;;;;;;3.10;2.20;;;23.10;47.90;;;;;;5009103;28;20201;-46
2022/09/03 06:49:13;;;;;;;2.90;2.47;;;23.00;47.90;;;;;;5009624;28;20208;-48
2022/09/03 06:51:39;;;;;;;2.60;2.50;;;23.00;48.00;;;;;;5009621;28;20280;-49
2022/09/03 06:54:07;;;;;;;2.23;2.10;;;23.00;47.80;;;;;;5008481;28;20417;-49
2022/09/03 06:56:34;;;;;;;3.10;2.90;;;22.60;48.30;;;;;;5008020;28;20476;-49
2022/09/03 06:59:05;;;;;;;2.40;2.20;;;22.60;48.90;;;;;;5007898;28;20535;-47
2022/09/03 07:01:31;;;;;;;3.50;2.50;;;22.70;48.90;;;;;;5009587;28;20864;-45
2022/09/03 07:04:02;;;;;;;4.73;2.37;;;22.90;48.40;;;;;;5010690;28;20421;-48
2022/09/03 07:06:31;;;;;;;3.00;2.80;;;22.80;48.60;;;;;;5008812;28;20535;-49
2022/09/03 07:08:58;;;;;;;2.47;2.27;;;22.70;48.60;;;;;;5008505;28;20776;-49
2022/09/03 07:11:26;;;;;;;3.70;3.30;;;22.80;48.80;;;;;;5008110;28;20510;-47
2022/09/03 07:13:53;;;;;;;4.23;3.17;;;23.00;48.70;;;;;;4999062;28;20453;-50
2022/09/03 07:16:21;;;;;;;3.10;2.90;;;22.90;49.30;;;;;;5001851;28;20433;-50
2022/09/03 07:18:48;;;;;;;4.70;3.93;;;22.80;48.80;;;;;;5006319;28;20551;-47
2022/09/03 07:21:16;;;;;;;2.67;2.47;;;22.90;48.70;;;;;;5010678;28;20503;-46
2022/09/03 07:23:43;;;;;;;2.33;2.13;;;22.90;48.80;;;;;;5011641;28;20623;-49
2022/09/03 07:26:12;;;;;;;4.77;2.93;;;23.10;48.80;;;;;;5009293;28;20499;-50
2022/09/03 07:29:01;;;;;;;2.77;2.30;;;23.30;48.40;;;;;;5009686;28;20437;-51
2022/09/03 07:31:30;;;;;;;5.90;2.50;;;23.40;48.30;;;;;;5002937;28;20495;-48
2022/09/03 07:34:05;;;;;;;5.80;2.90;;;23.30;48.20;;;;;;5015809;28;20444;-50
2022/09/03 07:36:37;;;;;;;3.70;2.73;;;23.00;48.40;;;;;;5020462;28;20507;-50
2022/09/03 07:39:05;;;;;;;3.10;2.80;;;22.90;49.30;;;;;;5004180;28;20472;-52
2022/09/03 07:41:32;;;;;;;9.90;2.60;;;23.10;49.20;;;;;;5010684;28;20965;-47
2022/09/03 07:44:04;;;;;;;2.80;2.60;;;23.20;48.70;;;;;;5008442;28;20445;-48
2022/09/03 07:46:32;;;;;;;3.80;2.10;;;23.50;48.50;;;;;;5011704;28;20462;-48
2022/09/03 07:49:01;;;;;;;3.00;2.70;;;23.60;48.40;;;;;;5008751;28;20449;-48
2022/09/03 07:51:28;;;;;;;5.50;2.67;;;23.70;48.30;;;;;;5010949;28;20441;-51
2022/09/03 07:53:57;;;;;;;4.03;2.50;;;23.80;48.00;;;;;;5003980;28;20453;-51
2022/09/03 07:56:24;;;;;;;4.87;3.23;;;23.60;48.70;;;;;;5008766;28;20448;-47
2022/09/03 07:58:49;;;;;;;3.73;2.83;;;23.80;48.70;;;;;;5006405;28;20530;-49
2022/09/03 08:01:21;;;;;;;2.83;2.60;;;23.50;49.10;;;;;;5012038;28;20445;-47
2022/09/03 08:03:49;;;;;;;3.20;2.90;;;23.60;49.20;;;;;;5009824;28;20217;-49
2022/09/03 08:06:17;;;;;;;2.97;2.77;;;23.60;49.10;;;;;;5011784;28;20923;-50
2022/09/03 08:08:44;;;;;;;2.63;2.43;;;23.50;49.30;;;;;;5013010;28;20448;-50
2022/09/03 08:11:15;;;;;;;3.30;2.80;;;23.80;49.30;;;;;;5009229;28;20447;-47
2022/09/03 08:13:56;;;;;;;3.20;2.87;;;23.90;49.00;;;;;;5001727;28;20453;-51
2022/09/03 08:16:22;;;;;;;2.80;2.60;;;23.80;50.10;;;;;;5010206;28;20445;-47
2022/09/03 08:18:50;;;;;;;2.73;2.53;;;24.30;48.90;;;;;;5019931;28;20478;-47
2022/09/03 08:21:18;;;;;;;4.47;2.50;;;24.70;48.20;;;;;;5011748;28;20225;-48
2022/09/03 08:23:50;;;;;;;3.13;2.60;;;24.90;47.90;;;;;;4999452;28;20499;-47
2022/09/03 08:26:17;;;;;;;2.70;2.50;;;25.20;47.20;;;;;;5008772;28;20488;-48
2022/09/03 08:28:43;;;;;;;2.67;2.47;;;25.40;47.20;;;;;;5009648;28;20441;-49
2022/09/03 08:31:17;;;;;;;2.93;2.60;;;25.60;46.70;;;;;;5004773;28;20457;-48
2022/09/03 08:33:46;;;;;;;3.13;2.87;;;25.70;46.00;;;;;;5009564;28;20456;-48
2022/09/03 08:36:24;;;;;;;3.33;3.00;;;25.70;46.40;;;;;;5003446;28;20452;-51
2022/09/03 08:38:51;;;;;;;2.50;2.30;;;25.70;46.50;;;;;;4998511;28;20547;-47
2022/09/03 08:41:30;;;;;;;2.93;2.30;;;25.90;46.20;;;;;;4997386;28;20769;-47
2022/09/03 08:43:57;;;;;;;2.90;2.53;;;26.10;45.70;;;;;;5008397;28;20460;-50
2022/09/03 08:46:31;;;;;;;2.73;2.50;;;26.30;46.00;;;;;;5011564;28;20552;-47
2022/09/03 08:48:58;;;;;;;3.50;3.07;;;26.50;45.20;;;;;;5011477;28;20943;-46
2022/09/03 08:51:28;;;;;;;3.13;2.93;;;26.70;44.90;;;;;;5011547;28;20459;-49
2022/09/03 08:53:56;;;;;;;2.80;2.60;;;26.70;44.90;;;;;;5008790;28;20480;-45
2022/09/03 08:56:30;;;;;;;2.80;2.60;;;26.80;45.10;;;;;;5016032;28;20439;-44
2022/09/03 08:58:56;;;;;;;2.40;2.30;;;27.10;44.60;;;;;;5014320;28;20441;-46
2022/09/03 09:01:56;;;;;;;2.43;2.20;;;26.90;44.60;;;;;;5008200;28;20948;-47
2022/09/03 09:04:35;;;;;;;3.17;2.87;;;27.20;45.20;;;;;;5007327;28;20884;-48
2022/09/03 09:07:09;;;;;;;2.73;2.30;;;27.50;44.10;;;;;;5001932;28;20453;-46
2022/09/03 09:10:32;;;;;;;2.53;2.43;;;27.60;43.80;;;;;;5010782;28;21003;-46
2022/09/03 09:13:06;;;;;;;3.63;3.20;;;27.80;43.60;;;;;;4976125;28;20858;-47
2022/09/03 09:16:01;;;;;;;3.97;3.57;;;27.90;43.40;;;;;;4984525;28;20457;-46
2022/09/03 09:18:41;;;;;;;2.90;2.70;;;28.00;43.20;;;;;;4994551;28;20584;-49
2022/09/03 09:21:16;;;;;;;3.00;2.40;;;28.10;42.80;;;;;;4993596;28;20536;-48
2022/09/03 09:23:46;;;;;;;4.07;3.20;;;28.20;43.00;;;;;;5008803;28;20479;-47
2022/09/03 09:26:20;;;;;;;3.10;2.80;;;28.30;42.90;;;;;;5005308;28;20467;-46
2022/09/03 09:28:56;;;;;;;3.57;3.00;;;28.30;42.60;;;;;;5004131;28;20514;-47
2022/09/03 09:31:22;;;;;;;3.33;3.13;;;28.40;42.40;;;;;;5010007;28;20451;-50
2022/09/03 09:33:48;;;;;;;5.40;2.80;;;28.60;42.60;;;;;;5005684;28;20535;-47
2022/09/03 09:36:15;;;;;;;2.63;2.53;;;28.50;42.80;;;;;;5001758;28;20194;-47
2022/09/03 09:38:42;;;;;;;3.20;2.93;;;28.70;42.90;;;;;;5001232;28;20292;-46
2022/09/03 09:41:20;;;;;;;3.17;2.97;;;28.90;43.10;;;;;;5000039;28;20495;-47
2022/09/03 09:43:47;;;;;;;3.40;3.10;;;29.00;41.90;;;;;;4998318;28;20508;-47
2022/09/03 09:46:19;;;;;;;3.30;2.90;;;29.00;41.80;;;;;;5004120;28;20519;-47
2022/09/03 09:48:51;;;;;;;3.20;3.00;;;29.10;41.60;;;;;;5009335;28;20449;-46
2022/09/03 09:51:21;;;;;;;5.10;3.70;;;29.10;41.60;;;;;;5008976;28;20445;-47
2022/09/03 09:53:47;;;;;;;3.23;2.93;;;29.00;41.80;;;;;;5009752;28;20476;-46
2022/09/03 09:56:23;;;;;;;3.17;2.97;;;29.00;43.90;;;;;;5005810;28;20444;-46
2022/09/03 09:58:51;;;;;;;3.30;2.83;;;29.10;44.00;;;;;;5007869;28;20359;-47
2022/09/03 10:01:25;;;;;;;3.30;3.00;;;29.10;42.90;;;;;;5008911;28;20789;-47
2022/09/03 10:03:56;;;;;;;4.43;3.23;;;29.30;42.40;;;;;;5006932;28;20452;-47
2022/09/03 10:09:18;;;;;;;3.37;3.17;;;29.60;41.60;;;;;;5026607;28;20502;-47
2022/09/03 10:11:50;;;;;;;3.40;3.10;;;29.70;40.90;;;;;;5006001;28;21350;-47
2022/09/03 10:14:48;;;;;;;3.90;3.33;;;29.70;40.80;;;;;;5009180;28;20900;-49
2022/09/03 10:17:27;;;;;;;3.53;3.23;;;29.70;40.50;;;;;;5006504;28;20488;-48
2022/09/03 10:22:48;;;;;;;4.23;3.47;;;29.80;40.80;;;;;;5008813;28;20503;-47
2022/09/03 10:25:16;;;;;;;4.47;3.30;;;29.80;40.80;;;;;;5006839;28;22228;-50
2022/09/03 10:27:44;;;;;;;3.00;2.70;;;29.80;40.80;;;;;;5006167;28;20445;-51
2022/09/03 10:30:13;;;;;;;4.13;3.60;;;29.90;40.70;;;;;;5006353;28;20492;-48
2022/09/03 10:32:43;;;;;;;4.00;3.30;;;30.00;40.30;;;;;;4999008;28;20459;-49
2022/09/03 10:35:25;;;;;;;4.70;3.30;;;30.00;40.40;;;;;;5008876;28;20445;-50
2022/09/03 10:38:16;;;;;;;4.50;2.70;;;30.00;40.20;;;;;;5004114;28;20484;-47
2022/09/03 10:40:58;;;;;;;7.30;3.40;;;30.00;40.30;;;;;;5001345;28;20512;-47
2022/09/03 10:43:30;;;;;;;3.40;3.20;;;30.10;40.40;;;;;;5004754;28;20503;-47
2022/09/03 10:46:00;;;;;;;3.33;3.03;;;30.20;39.70;;;;;;5008882;28;20564;-49
2022/09/03 10:48:31;;;;;;;4.00;3.20;;;30.20;39.40;;;;;;5006670;28;20940;-47
2022/09/03 10:51:03;;;;;;;3.80;2.73;;;30.20;39.50;;;;;;5009378;28;20449;-50
2022/09/03 10:53:50;;;;;;;3.93;3.63;;;30.30;39.70;;;;;;5000032;28;20507;-47
2022/09/03 10:56:42;;;;;;;3.70;3.00;;;30.00;39.60;;;;;;5003919;28;20483;-47
2022/09/03 10:59:32;;;;;;;3.27;3.07;;;29.80;40.10;;;;;;5004275;28;20460;-47
2022/09/03 11:02:01;;;;;;;3.73;3.40;;;29.80;40.30;;;;;;5004059;28;20955;-47
2022/09/03 11:04:55;;;;;;;3.40;3.20;;;30.00;40.20;;;;;;5005514;28;20453;-48
2022/09/03 11:07:27;;;;;;;4.33;3.90;;;30.10;40.40;;;;;;5000514;28;20454;-47
2022/09/03 11:10:05;;;;;;;3.50;3.30;;;30.20;39.70;;;;;;5010166;28;20811;-49
2022/09/03 11:12:37;;;;;;;3.67;3.37;;;30.20;39.60;;;;;;5008795;28;20468;-48
2022/09/03 11:15:08;;;;;;;3.40;3.10;;;30.30;39.40;;;;;;5007477;28;20441;-47
2022/09/03 11:17:43;;;;;;;3.40;3.20;;;30.40;39.40;;;;;;5006696;28;20484;-46
2022/09/03 11:20:25;;;;;;;3.93;3.50;;;30.30;39.40;;;;;;5003864;28;20462;-47
2022/09/03 11:22:58;;;;;;;3.73;3.30;;;30.20;39.90;;;;;;5002873;28;20451;-46
2022/09/03 11:25:34;;;;;;;4.30;3.20;;;30.00;40.00;;;;;;5006691;28;20555;-47
2022/09/03 11:28:32;;;;;;;3.87;3.50;;;30.00;40.00;;;;;;5007095;28;20830;-47
2022/09/03 11:31:42;;;;;;;3.80;3.50;;;30.10;39.90;;;;;;4986692;28;20552;-47
2022/09/03 11:34:15;;;;;;;4.67;3.30;;;30.10;39.80;;;;;;4999333;28;20543;-49
2022/09/03 11:36:41;;;;;;;3.37;3.17;;;30.20;40.20;;;;;;5005582;28;20455;-46
2022/09/03 11:39:31;;;;;;;3.43;3.23;;;30.20;40.00;;;;;;5023425;28;20445;-46
2022/09/03 11:42:01;;;;;;;4.77;3.20;;;30.20;39.70;;;;;;5006339;28;20509;-46
2022/09/03 11:44:38;;;;;;;3.50;2.90;;;30.20;40.00;;;;;;5005616;28;20437;-48
2022/09/03 11:47:22;;;;;;;3.83;3.37;;;29.80;40.80;;;;;;5002388;28;20460;-46
2022/09/03 11:49:51;;;;;;;4.00;3.70;;;29.90;40.70;;;;;;4999635;28;20457;-46
2022/09/03 11:52:39;;;;;;;4.07;3.70;;;30.00;40.50;;;;;;5001100;28;20917;-47
2022/09/03 11:55:06;;;;;;;3.50;3.30;;;30.20;40.50;;;;;;5001624;28;20480;-46
2022/09/03 11:57:38;;;;;;;3.63;3.30;;;30.00;40.40;;;;;;5015438;28;20542;-51
2022/09/03 12:00:16;;;;;;;3.90;3.47;;;30.00;40.30;;;;;;5003830;28;20539;-47
2022/09/03 12:02:45;;;;;;;5.70;3.40;;;30.00;40.50;;;;;;5006567;28;20450;-50
2022/09/03 12:05:46;;;;;;;3.50;3.30;;;30.00;40.30;;;;;;5011579;28;20476;-47
2022/09/03 12:08:52;;;;;;;6.40;3.37;;;30.00;40.30;;;;;;5005095;28;20954;-47
2022/09/03 12:11:29;;;;;;;4.93;3.50;;;30.00;40.60;;;;;;5012207;28;20529;-48
2022/09/03 12:14:42;;;;;;;3.60;3.30;;;29.90;41.00;;;;;;5028195;28;20971;-47
2022/09/03 12:17:11;;;;;;;3.77;3.47;;;29.80;41.00;;;;;;5010853;28;20500;-47
2022/09/03 12:19:52;;;;;;;3.43;3.20;;;29.70;41.10;;;;;;5013085;28;20441;-47
2022/09/03 12:22:21;;;;;;;3.37;3.17;;;29.70;41.10;;;;;;5013310;28;20436;-47
2022/09/03 12:24:46;;;;;;;4.47;4.07;;;29.60;41.30;;;;;;5012273;28;20857;-47
2022/09/03 12:27:32;;;;;;;4.63;4.13;;;29.50;41.40;;;;;;5031928;28;20430;-47
2022/09/03 12:30:00;;;;;;;4.00;3.47;;;29.50;41.60;;;;;;5031353;28;21359;-47
2022/09/03 12:32:35;;;;;;;3.70;3.40;;;29.40;41.80;;;;;;5032833;28;20420;-47
2022/09/03 12:35:15;;;;;;;4.00;3.60;;;29.30;42.10;;;;;;5026864;28;20915;-46
2022/09/03 12:37:44;;;;;;;4.20;3.90;;;29.10;42.60;;;;;;5012671;28;20488;-46
2022/09/03 12:40:28;;;;;;;7.37;6.67;;;29.00;43.20;;;;;;5017383;28;20797;-47
2022/09/03 12:42:54;;;;;;;4.73;4.33;;;28.80;43.90;;;;;;5031961;28;20522;-49
2022/09/03 12:45:25;;;;;;;2.97;2.73;;;28.50;45.10;;;;;;5013037;28;20490;-48
2022/09/03 12:47:52;;;;;;;2.20;2.00;;;27.90;46.80;;;;;;5013074;28;20436;-47
2022/09/03 12:50:23;;;;;;;1.73;1.63;;;27.40;48.00;;;;;;5011836;28;20449;-47
2022/09/03 12:52:49;;;;;;;3.37;1.60;;;26.80;48.90;;;;;;5012769;28;20433;-47
2022/09/03 12:55:35;;;;;;;1.50;1.40;;;26.80;49.70;;;;;;5010844;28;20511;-47
2022/09/03 12:58:14;;;;;;;2.60;1.70;;;26.40;50.00;;;;;;5012587;28;20249;-47
2022/09/03 13:00:46;;;;;;;4.30;1.40;;;26.20;50.80;;;;;;5011763;28;20445;-49
2022/09/03 13:03:19;;;;;;;2.40;1.40;;;26.10;51.40;;;;;;5012645;28;20436;-47
2022/09/03 13:05:50;;;;;;;1.63;1.40;;;25.80;51.90;;;;;;5011922;28;20487;-47
2022/09/03 13:08:22;;;;;;;1.57;1.47;;;25.80;53.10;;;;;;5022119;28;20463;-52
2022/09/03 13:10:52;;;;;;;3.57;1.40;;;25.70;53.80;;;;;;5020449;28;20449;-49
2022/09/03 13:13:22;;;;;;;2.43;1.47;;;25.60;53.20;;;;;;5010825;28;20929;-48
2022/09/03 13:16:16;;;;;;;1.77;1.13;;;25.40;54.30;;;;;;5028876;28;20982;-48
2022/09/03 13:18:54;;;;;;;3.20;1.53;;;25.00;55.50;;;;;;5007464;28;20563;-50
2022/09/03 13:21:32;;;;;;;2.70;1.30;;;24.70;56.60;;;;;;5010889;28;20932;-51
2022/09/03 13:24:26;;;;;;;1.30;1.20;;;24.40;57.50;;;;;;5011951;28;20424;-48